sensor_id;sensor_type;location;lat;lon;timestamp;P1;durP1;ratioP1;P2;durP2;ratioP2
78563;SDS011;67856;47.754;19.088;2023-05-10T00:01:07;2.08;;;1.48;;
78563;SDS011;67856;47.754;19.088;2023-05-10T00:04:10;1.90;;;1.35;;
78563;SDS011;67856;47.754;19.088;2023-05-10T00:07:12;3.47;;;1.50;;
78563;SDS011;67856;47.754;19.088;2023-05-10T00:10:15;4.60;;;1.40;;
78563;SDS011;67856;47.754;19.088;2023-05-10T00:13:17;1.67;;;1.33;;
78563;SDS011;67856;47.754;19.088;2023-05-10T00:16:20;2.03;;;1.35;;
78563;SDS011;67856;47.754;19.088;2023-05-10T00:19:22;2.20;;;1.50;;
78563;SDS011;67856;47.754;19.088;2023-05-10T00:22:25;2.30;;;1.27;;
78563;SDS011;67856;47.754;19.088;2023-05-10T00:25:28;2.50;;;1.60;;
78563;SDS011;67856;47.754;19.088;2023-05-10T00:28:30;3.42;;;1.48;;
78563;SDS011;67856;47.754;19.088;2023-05-10T00:31:33;3.92;;;1.35;;
78563;SDS011;67856;47.754;19.088;2023-05-10T00:34:35;1.60;;;1.10;;
78563;SDS011;67856;47.754;19.088;2023-05-10T00:37:38;2.33;;;1.40;;
78563;SDS011;67856;47.754;19.088;2023-05-10T00:40:40;2.10;;;1.50;;
78563;SDS011;67856;47.754;19.088;2023-05-10T00:43:49;2.38;;;1.40;;
78563;SDS011;67856;47.754;19.088;2023-05-10T00:46:52;2.20;;;1.40;;
78563;SDS011;67856;47.754;19.088;2023-05-10T00:49:54;2.70;;;1.30;;
78563;SDS011;67856;47.754;19.088;2023-05-10T00:52:57;1.87;;;1.23;;
78563;SDS011;67856;47.754;19.088;2023-05-10T00:56:01;2.63;;;1.40;;
78563;SDS011;67856;47.754;19.088;2023-05-10T00:59:05;1.80;;;1.40;;
78563;SDS011;67856;47.754;19.088;2023-05-10T01:02:08;2.42;;;1.48;;
78563;SDS011;67856;47.754;19.088;2023-05-10T01:05:11;2.10;;;1.50;;
78563;SDS011;67856;47.754;19.088;2023-05-10T01:08:14;2.47;;;1.60;;
78563;SDS011;67856;47.754;19.088;2023-05-10T01:11:17;2.23;;;1.30;;
78563;SDS011;67856;47.754;19.088;2023-05-10T01:14:19;3.75;;;1.60;;
78563;SDS011;67856;47.754;19.088;2023-05-10T01:17:22;2.72;;;1.40;;
78563;SDS011;67856;47.754;19.088;2023-05-10T01:20:25;3.08;;;1.30;;
78563;SDS011;67856;47.754;19.088;2023-05-10T01:33:41;2.30;;;1.30;;
78563;SDS011;67856;47.754;19.088;2023-05-10T01:36:58;1.88;;;1.33;;
78563;SDS011;67856;47.754;19.088;2023-05-10T01:40:19;2.23;;;1.60;;
78563;SDS011;67856;47.754;19.088;2023-05-10T01:43:30;2.23;;;1.33;;
78563;SDS011;67856;47.754;19.088;2023-05-10T01:46:36;3.13;;;1.35;;
78563;SDS011;67856;47.754;19.088;2023-05-10T01:49:41;4.00;;;1.40;;
78563;SDS011;67856;47.754;19.088;2023-05-10T01:52:53;2.63;;;1.40;;
78563;SDS011;67856;47.754;19.088;2023-05-10T01:55:59;2.07;;;1.40;;
78563;SDS011;67856;47.754;19.088;2023-05-10T01:59:04;2.00;;;1.40;;
78563;SDS011;67856;47.754;19.088;2023-05-10T02:02:09;1.85;;;1.40;;
78563;SDS011;67856;47.754;19.088;2023-05-10T02:05:14;1.60;;;1.25;;
78563;SDS011;67856;47.754;19.088;2023-05-10T02:08:18;2.22;;;1.30;;
78563;SDS011;67856;47.754;19.088;2023-05-10T02:11:21;2.30;;;1.30;;
78563;SDS011;67856;47.754;19.088;2023-05-10T02:14:24;2.70;;;1.33;;
78563;SDS011;67856;47.754;19.088;2023-05-10T02:17:28;2.28;;;1.38;;
78563;SDS011;67856;47.754;19.088;2023-05-10T02:20:33;2.70;;;1.27;;
78563;SDS011;67856;47.754;19.088;2023-05-10T02:23:37;2.17;;;1.30;;
78563;SDS011;67856;47.754;19.088;2023-05-10T02:26:39;1.87;;;1.40;;
78563;SDS011;67856;47.754;19.088;2023-05-10T02:29:42;1.87;;;1.17;;
78563;SDS011;67856;47.754;19.088;2023-05-10T02:32:46;1.92;;;1.33;;
78563;SDS011;67856;47.754;19.088;2023-05-10T02:35:50;2.65;;;1.33;;
78563;SDS011;67856;47.754;19.088;2023-05-10T02:38:53;1.85;;;1.10;;
78563;SDS011;67856;47.754;19.088;2023-05-10T02:41:57;3.23;;;1.53;;
78563;SDS011;67856;47.754;19.088;2023-05-10T02:45:01;1.80;;;1.40;;
78563;SDS011;67856;47.754;19.088;2023-05-10T02:48:04;2.25;;;1.27;;
78563;SDS011;67856;47.754;19.088;2023-05-10T02:51:07;2.05;;;1.30;;
78563;SDS011;67856;47.754;19.088;2023-05-10T02:54:15;2.17;;;1.10;;
78563;SDS011;67856;47.754;19.088;2023-05-10T02:57:31;1.50;;;1.07;;
78563;SDS011;67856;47.754;19.088;2023-05-10T03:00:36;3.47;;;1.40;;
78563;SDS011;67856;47.754;19.088;2023-05-10T03:03:38;2.00;;;1.38;;
78563;SDS011;67856;47.754;19.088;2023-05-10T03:06:41;1.90;;;1.13;;
78563;SDS011;67856;47.754;19.088;2023-05-10T03:09:44;1.50;;;1.27;;
78563;SDS011;67856;47.754;19.088;2023-05-10T03:19:16;1.90;;;1.20;;
78563;SDS011;67856;47.754;19.088;2023-05-10T03:22:32;2.20;;;1.20;;
78563;SDS011;67856;47.754;19.088;2023-05-10T03:25:39;1.88;;;1.10;;
78563;SDS011;67856;47.754;19.088;2023-05-10T03:28:43;2.00;;;1.20;;
78563;SDS011;67856;47.754;19.088;2023-05-10T03:31:46;1.40;;;1.10;;
78563;SDS011;67856;47.754;19.088;2023-05-10T03:34:49;2.15;;;1.20;;
78563;SDS011;67856;47.754;19.088;2023-05-10T03:37:52;1.85;;;1.30;;
78563;SDS011;67856;47.754;19.088;2023-05-10T03:40:54;3.08;;;1.20;;
78563;SDS011;67856;47.754;19.088;2023-05-10T03:43:57;2.07;;;1.30;;
78563;SDS011;67856;47.754;19.088;2023-05-10T03:47:00;2.03;;;1.20;;
78563;SDS011;67856;47.754;19.088;2023-05-10T03:50:03;2.05;;;1.13;;
78563;SDS011;67856;47.754;19.088;2023-05-10T03:53:07;1.98;;;1.17;;
78563;SDS011;67856;47.754;19.088;2023-05-10T03:56:09;2.00;;;1.35;;
78563;SDS011;67856;47.754;19.088;2023-05-10T03:59:13;3.70;;;1.40;;
78563;SDS011;67856;47.754;19.088;2023-05-10T04:02:16;1.67;;;1.00;;
78563;SDS011;67856;47.754;19.088;2023-05-10T04:05:18;1.58;;;1.23;;
78563;SDS011;67856;47.754;19.088;2023-05-10T04:08:21;2.67;;;1.38;;
78563;SDS011;67856;47.754;19.088;2023-05-10T04:11:23;2.88;;;1.45;;
78563;SDS011;67856;47.754;19.088;2023-05-10T04:14:26;5.77;;;1.30;;
78563;SDS011;67856;47.754;19.088;2023-05-10T04:17:29;2.40;;;1.33;;
78563;SDS011;67856;47.754;19.088;2023-05-10T04:20:32;5.75;;;2.00;;
78563;SDS011;67856;47.754;19.088;2023-05-10T04:23:35;3.33;;;1.77;;
78563;SDS011;67856;47.754;19.088;2023-05-10T04:26:37;4.93;;;1.70;;
78563;SDS011;67856;47.754;19.088;2023-05-10T04:29:40;4.03;;;1.43;;
78563;SDS011;67856;47.754;19.088;2023-05-10T04:32:43;8.47;;;1.60;;
78563;SDS011;67856;47.754;19.088;2023-05-10T04:35:46;4.43;;;1.65;;
78563;SDS011;67856;47.754;19.088;2023-05-10T04:38:51;6.47;;;1.60;;
78563;SDS011;67856;47.754;19.088;2023-05-10T04:41:54;3.42;;;1.45;;
78563;SDS011;67856;47.754;19.088;2023-05-10T04:44:56;5.97;;;1.50;;
78563;SDS011;67856;47.754;19.088;2023-05-10T04:47:58;3.53;;;1.40;;
78563;SDS011;67856;47.754;19.088;2023-05-10T04:51:01;3.90;;;1.55;;
78563;SDS011;67856;47.754;19.088;2023-05-10T04:54:06;2.53;;;1.60;;
78563;SDS011;67856;47.754;19.088;2023-05-10T04:57:08;8.10;;;1.70;;
78563;SDS011;67856;47.754;19.088;2023-05-10T05:00:11;6.77;;;1.90;;
78563;SDS011;67856;47.754;19.088;2023-05-10T05:03:14;2.63;;;1.60;;
78563;SDS011;67856;47.754;19.088;2023-05-10T05:06:17;2.50;;;1.50;;
78563;SDS011;67856;47.754;19.088;2023-05-10T05:09:19;4.38;;;1.77;;
78563;SDS011;67856;47.754;19.088;2023-05-10T05:12:22;5.53;;;1.77;;
78563;SDS011;67856;47.754;19.088;2023-05-10T05:15:24;3.80;;;1.60;;
78563;SDS011;67856;47.754;19.088;2023-05-10T05:18:27;5.13;;;1.70;;
78563;SDS011;67856;47.754;19.088;2023-05-10T05:21:29;9.25;;;1.80;;
78563;SDS011;67856;47.754;19.088;2023-05-10T05:24:34;8.68;;;1.90;;
78563;SDS011;67856;47.754;19.088;2023-05-10T05:27:39;5.55;;;1.90;;
78563;SDS011;67856;47.754;19.088;2023-05-10T05:30:42;3.97;;;1.83;;
78563;SDS011;67856;47.754;19.088;2023-05-10T05:33:44;6.27;;;1.73;;
78563;SDS011;67856;47.754;19.088;2023-05-10T05:36:47;3.88;;;1.70;;
78563;SDS011;67856;47.754;19.088;2023-05-10T05:39:49;10.77;;;1.80;;
78563;SDS011;67856;47.754;19.088;2023-05-10T05:42:52;5.75;;;1.85;;
78563;SDS011;67856;47.754;19.088;2023-05-10T05:45:55;7.63;;;2.07;;
78563;SDS011;67856;47.754;19.088;2023-05-10T05:49:00;9.30;;;2.03;;
78563;SDS011;67856;47.754;19.088;2023-05-10T05:52:03;6.90;;;2.15;;
78563;SDS011;67856;47.754;19.088;2023-05-10T05:55:06;4.95;;;2.10;;
78563;SDS011;67856;47.754;19.088;2023-05-10T05:58:09;12.32;;;2.30;;
78563;SDS011;67856;47.754;19.088;2023-05-10T06:01:11;11.30;;;2.50;;
78563;SDS011;67856;47.754;19.088;2023-05-10T06:04:14;14.53;;;2.70;;
78563;SDS011;67856;47.754;19.088;2023-05-10T06:07:17;12.73;;;2.30;;
78563;SDS011;67856;47.754;19.088;2023-05-10T06:10:20;14.48;;;2.90;;
78563;SDS011;67856;47.754;19.088;2023-05-10T06:13:25;16.35;;;2.40;;
78563;SDS011;67856;47.754;19.088;2023-05-10T06:20:46;7.90;;;2.30;;
78563;SDS011;67856;47.754;19.088;2023-05-10T06:23:48;23.52;;;3.63;;
78563;SDS011;67856;47.754;19.088;2023-05-10T06:26:51;12.07;;;3.17;;
78563;SDS011;67856;47.754;19.088;2023-05-10T06:29:55;14.55;;;2.55;;
78563;SDS011;67856;47.754;19.088;2023-05-10T06:33:13;12.50;;;2.80;;
78563;SDS011;67856;47.754;19.088;2023-05-10T06:36:18;17.40;;;2.83;;
78563;SDS011;67856;47.754;19.088;2023-05-10T06:39:33;12.02;;;2.50;;
78563;SDS011;67856;47.754;19.088;2023-05-10T06:42:47;9.93;;;2.30;;
78563;SDS011;67856;47.754;19.088;2023-05-10T06:45:53;37.92;;;3.60;;
78563;SDS011;67856;47.754;19.088;2023-05-10T06:48:55;20.03;;;3.30;;
78563;SDS011;67856;47.754;19.088;2023-05-10T06:51:58;25.20;;;3.83;;
78563;SDS011;67856;47.754;19.088;2023-05-10T06:55:01;20.75;;;3.28;;
78563;SDS011;67856;47.754;19.088;2023-05-10T06:58:04;19.40;;;3.53;;
78563;SDS011;67856;47.754;19.088;2023-05-10T07:01:07;23.70;;;3.05;;
78563;SDS011;67856;47.754;19.088;2023-05-10T07:04:09;20.47;;;3.27;;
78563;SDS011;67856;47.754;19.088;2023-05-10T07:07:12;18.47;;;3.23;;
78563;SDS011;67856;47.754;19.088;2023-05-10T07:10:15;19.75;;;3.17;;
78563;SDS011;67856;47.754;19.088;2023-05-10T07:13:18;18.75;;;3.03;;
78563;SDS011;67856;47.754;19.088;2023-05-10T07:16:21;17.55;;;3.00;;
78563;SDS011;67856;47.754;19.088;2023-05-10T07:19:24;19.63;;;2.97;;
78563;SDS011;67856;47.754;19.088;2023-05-10T07:22:27;20.17;;;3.00;;
78563;SDS011;67856;47.754;19.088;2023-05-10T07:25:29;18.90;;;3.05;;
78563;SDS011;67856;47.754;19.088;2023-05-10T07:28:32;25.02;;;3.65;;
78563;SDS011;67856;47.754;19.088;2023-05-10T07:31:35;15.52;;;3.60;;
78563;SDS011;67856;47.754;19.088;2023-05-10T07:34:37;23.67;;;4.00;;
78563;SDS011;67856;47.754;19.088;2023-05-10T07:37:40;12.23;;;3.10;;
78563;SDS011;67856;47.754;19.088;2023-05-10T07:40:46;14.73;;;3.45;;
78563;SDS011;67856;47.754;19.088;2023-05-10T07:43:48;15.65;;;3.38;;
78563;SDS011;67856;47.754;19.088;2023-05-10T07:46:51;16.10;;;3.50;;
78563;SDS011;67856;47.754;19.088;2023-05-10T07:49:54;12.83;;;3.20;;
78563;SDS011;67856;47.754;19.088;2023-05-10T07:53:05;13.93;;;3.20;;
78563;SDS011;67856;47.754;19.088;2023-05-10T07:56:22;15.00;;;2.75;;
78563;SDS011;67856;47.754;19.088;2023-05-10T07:59:27;14.52;;;3.33;;
78563;SDS011;67856;47.754;19.088;2023-05-10T08:02:29;17.42;;;2.90;;
78563;SDS011;67856;47.754;19.088;2023-05-10T08:05:32;12.63;;;3.17;;
78563;SDS011;67856;47.754;19.088;2023-05-10T08:08:36;17.40;;;2.90;;
78563;SDS011;67856;47.754;19.088;2023-05-10T08:11:39;13.98;;;3.00;;
78563;SDS011;67856;47.754;19.088;2023-05-10T08:14:41;14.00;;;2.85;;
78563;SDS011;67856;47.754;19.088;2023-05-10T08:17:44;15.43;;;2.97;;
78563;SDS011;67856;47.754;19.088;2023-05-10T08:20:47;14.40;;;3.23;;
78563;SDS011;67856;47.754;19.088;2023-05-10T08:23:49;11.23;;;2.93;;
78563;SDS011;67856;47.754;19.088;2023-05-10T08:26:52;17.90;;;3.33;;
78563;SDS011;67856;47.754;19.088;2023-05-10T08:29:54;11.70;;;3.17;;
78563;SDS011;67856;47.754;19.088;2023-05-10T08:32:57;16.42;;;2.95;;
78563;SDS011;67856;47.754;19.088;2023-05-10T08:35:59;14.93;;;3.17;;
78563;SDS011;67856;47.754;19.088;2023-05-10T08:39:02;14.77;;;3.83;;
78563;SDS011;67856;47.754;19.088;2023-05-10T08:42:05;16.77;;;3.60;;
78563;SDS011;67856;47.754;19.088;2023-05-10T08:45:09;12.88;;;3.50;;
78563;SDS011;67856;47.754;19.088;2023-05-10T08:48:13;11.18;;;3.03;;
78563;SDS011;67856;47.754;19.088;2023-05-10T08:51:21;16.70;;;3.57;;
78563;SDS011;67856;47.754;19.088;2023-05-10T08:54:27;9.67;;;3.03;;
78563;SDS011;67856;47.754;19.088;2023-05-10T08:57:29;16.73;;;3.50;;
78563;SDS011;67856;47.754;19.088;2023-05-10T09:00:32;11.75;;;3.25;;
78563;SDS011;67856;47.754;19.088;2023-05-10T09:03:35;10.95;;;3.15;;
78563;SDS011;67856;47.754;19.088;2023-05-10T09:06:40;9.90;;;3.30;;
78563;SDS011;67856;47.754;19.088;2023-05-10T09:09:43;7.80;;;3.37;;
78563;SDS011;67856;47.754;19.088;2023-05-10T09:12:46;8.13;;;3.13;;
78563;SDS011;67856;47.754;19.088;2023-05-10T09:15:48;12.40;;;3.38;;
78563;SDS011;67856;47.754;19.088;2023-05-10T09:18:51;11.55;;;3.97;;
78563;SDS011;67856;47.754;19.088;2023-05-10T09:21:54;19.07;;;3.10;;
78563;SDS011;67856;47.754;19.088;2023-05-10T09:25:08;9.60;;;2.87;;
78563;SDS011;67856;47.754;19.088;2023-05-10T09:28:11;9.50;;;3.10;;
78563;SDS011;67856;47.754;19.088;2023-05-10T09:31:13;13.27;;;3.42;;
78563;SDS011;67856;47.754;19.088;2023-05-10T09:34:18;9.93;;;3.58;;
78563;SDS011;67856;47.754;19.088;2023-05-10T09:37:28;7.43;;;2.93;;
78563;SDS011;67856;47.754;19.088;2023-05-10T09:40:31;12.80;;;3.30;;
78563;SDS011;67856;47.754;19.088;2023-05-10T09:43:37;13.93;;;3.28;;
78563;SDS011;67856;47.754;19.088;2023-05-10T09:46:40;6.95;;;2.92;;
78563;SDS011;67856;47.754;19.088;2023-05-10T09:49:44;7.07;;;3.00;;
78563;SDS011;67856;47.754;19.088;2023-05-10T09:52:53;9.40;;;3.23;;
78563;SDS011;67856;47.754;19.088;2023-05-10T09:56:35;11.63;;;3.30;;
78563;SDS011;67856;47.754;19.088;2023-05-10T09:59:38;9.07;;;3.22;;
78563;SDS011;67856;47.754;19.088;2023-05-10T10:02:45;8.23;;;3.08;;
78563;SDS011;67856;47.754;19.088;2023-05-10T10:05:56;7.80;;;3.45;;
78563;SDS011;67856;47.754;19.088;2023-05-10T10:08:59;10.93;;;3.37;;
78563;SDS011;67856;47.754;19.088;2023-05-10T10:12:10;13.33;;;3.20;;
78563;SDS011;67856;47.754;19.088;2023-05-10T10:15:12;5.53;;;3.22;;
78563;SDS011;67856;47.754;19.088;2023-05-10T10:18:17;9.70;;;3.38;;
78563;SDS011;67856;47.754;19.088;2023-05-10T10:21:22;9.52;;;3.15;;
78563;SDS011;67856;47.754;19.088;2023-05-10T10:24:24;10.77;;;3.27;;
78563;SDS011;67856;47.754;19.088;2023-05-10T10:30:54;11.15;;;3.38;;
78563;SDS011;67856;47.754;19.088;2023-05-10T10:34:01;11.35;;;3.40;;
78563;SDS011;67856;47.754;19.088;2023-05-10T10:37:07;8.68;;;3.25;;
78563;SDS011;67856;47.754;19.088;2023-05-10T10:40:23;9.93;;;3.40;;
78563;SDS011;67856;47.754;19.088;2023-05-10T10:43:27;11.83;;;3.20;;
78563;SDS011;67856;47.754;19.088;2023-05-10T10:46:31;13.10;;;3.03;;
78563;SDS011;67856;47.754;19.088;2023-05-10T10:52:43;11.35;;;3.10;;
78563;SDS011;67856;47.754;19.088;2023-05-10T10:55:46;15.83;;;3.70;;
78563;SDS011;67856;47.754;19.088;2023-05-10T10:58:51;10.27;;;3.37;;
78563;SDS011;67856;47.754;19.088;2023-05-10T11:01:55;9.90;;;2.95;;
78563;SDS011;67856;47.754;19.088;2023-05-10T11:04:58;11.82;;;3.03;;
78563;SDS011;67856;47.754;19.088;2023-05-10T11:08:13;11.85;;;3.30;;
78563;SDS011;67856;47.754;19.088;2023-05-10T11:11:18;9.23;;;3.20;;
78563;SDS011;67856;47.754;19.088;2023-05-10T11:14:21;9.40;;;3.23;;
78563;SDS011;67856;47.754;19.088;2023-05-10T11:17:27;10.77;;;3.30;;
78563;SDS011;67856;47.754;19.088;2023-05-10T11:20:38;8.95;;;2.70;;
78563;SDS011;67856;47.754;19.088;2023-05-10T11:23:48;9.45;;;3.28;;
78563;SDS011;67856;47.754;19.088;2023-05-10T11:26:52;11.37;;;3.23;;
78563;SDS011;67856;47.754;19.088;2023-05-10T11:29:55;9.87;;;2.83;;
78563;SDS011;67856;47.754;19.088;2023-05-10T11:32:57;9.10;;;3.30;;
78563;SDS011;67856;47.754;19.088;2023-05-10T11:36:00;8.63;;;3.30;;
78563;SDS011;67856;47.754;19.088;2023-05-10T11:39:03;7.80;;;3.13;;
78563;SDS011;67856;47.754;19.088;2023-05-10T11:42:06;8.07;;;3.40;;
78563;SDS011;67856;47.754;19.088;2023-05-10T11:45:11;11.53;;;3.40;;
78563;SDS011;67856;47.754;19.088;2023-05-10T11:48:13;7.30;;;3.10;;
78563;SDS011;67856;47.754;19.088;2023-05-10T11:51:19;9.98;;;3.58;;
78563;SDS011;67856;47.754;19.088;2023-05-10T11:54:22;11.43;;;3.22;;
78563;SDS011;67856;47.754;19.088;2023-05-10T11:57:26;6.00;;;2.60;;
78563;SDS011;67856;47.754;19.088;2023-05-10T12:00:30;9.47;;;2.87;;
78563;SDS011;67856;47.754;19.088;2023-05-10T12:03:33;13.05;;;3.35;;
78563;SDS011;67856;47.754;19.088;2023-05-10T12:06:37;8.68;;;3.30;;
78563;SDS011;67856;47.754;19.088;2023-05-10T12:09:43;10.15;;;2.85;;
78563;SDS011;67856;47.754;19.088;2023-05-10T12:12:47;6.93;;;3.17;;
78563;SDS011;67856;47.754;19.088;2023-05-10T12:15:50;7.13;;;2.60;;
78563;SDS011;67856;47.754;19.088;2023-05-10T12:18:55;6.25;;;3.05;;
78563;SDS011;67856;47.754;19.088;2023-05-10T12:21:59;10.35;;;3.10;;
78563;SDS011;67856;47.754;19.088;2023-05-10T12:25:02;7.63;;;3.20;;
78563;SDS011;67856;47.754;19.088;2023-05-10T12:28:08;7.37;;;2.90;;
78563;SDS011;67856;47.754;19.088;2023-05-10T12:31:11;8.07;;;2.73;;
78563;SDS011;67856;47.754;19.088;2023-05-10T12:34:22;7.05;;;2.60;;
78563;SDS011;67856;47.754;19.088;2023-05-10T12:37:38;5.05;;;2.92;;
78563;SDS011;67856;47.754;19.088;2023-05-10T12:40:40;8.73;;;2.80;;
78563;SDS011;67856;47.754;19.088;2023-05-10T12:43:43;5.30;;;2.80;;
78563;SDS011;67856;47.754;19.088;2023-05-10T12:46:47;5.47;;;2.80;;
78563;SDS011;67856;47.754;19.088;2023-05-10T12:49:49;5.90;;;2.70;;
78563;SDS011;67856;47.754;19.088;2023-05-10T12:52:53;4.60;;;2.70;;
78563;SDS011;67856;47.754;19.088;2023-05-10T12:55:55;6.65;;;2.70;;
78563;SDS011;67856;47.754;19.088;2023-05-10T12:58:58;9.03;;;2.77;;
78563;SDS011;67856;47.754;19.088;2023-05-10T13:02:00;6.20;;;2.60;;
78563;SDS011;67856;47.754;19.088;2023-05-10T13:05:02;8.63;;;2.70;;
78563;SDS011;67856;47.754;19.088;2023-05-10T13:08:05;7.45;;;3.00;;
78563;SDS011;67856;47.754;19.088;2023-05-10T13:11:07;6.18;;;2.90;;
78563;SDS011;67856;47.754;19.088;2023-05-10T13:14:10;6.70;;;2.83;;
78563;SDS011;67856;47.754;19.088;2023-05-10T13:17:12;5.93;;;2.70;;
78563;SDS011;67856;47.754;19.088;2023-05-10T13:20:15;9.20;;;3.10;;
78563;SDS011;67856;47.754;19.088;2023-05-10T13:23:18;8.38;;;2.80;;
78563;SDS011;67856;47.754;19.088;2023-05-10T13:26:20;12.07;;;3.08;;
78563;SDS011;67856;47.754;19.088;2023-05-10T13:29:23;8.10;;;3.10;;
78563;SDS011;67856;47.754;19.088;2023-05-10T13:32:25;6.93;;;2.60;;
78563;SDS011;67856;47.754;19.088;2023-05-10T13:35:28;5.82;;;2.28;;
78563;SDS011;67856;47.754;19.088;2023-05-10T13:38:30;10.07;;;3.10;;
78563;SDS011;67856;47.754;19.088;2023-05-10T13:41:33;5.60;;;2.33;;
78563;SDS011;67856;47.754;19.088;2023-05-10T13:44:35;12.60;;;2.70;;
78563;SDS011;67856;47.754;19.088;2023-05-10T13:47:38;7.50;;;2.50;;
78563;SDS011;67856;47.754;19.088;2023-05-10T13:50:41;14.02;;;3.17;;
78563;SDS011;67856;47.754;19.088;2023-05-10T13:53:43;10.68;;;2.97;;
78563;SDS011;67856;47.754;19.088;2023-05-10T13:56:45;10.50;;;3.20;;
78563;SDS011;67856;47.754;19.088;2023-05-10T13:59:49;8.33;;;2.60;;
78563;SDS011;67856;47.754;19.088;2023-05-10T14:02:52;8.13;;;2.87;;
78563;SDS011;67856;47.754;19.088;2023-05-10T14:05:55;13.25;;;3.20;;
78563;SDS011;67856;47.754;19.088;2023-05-10T14:08:57;11.82;;;2.97;;
78563;SDS011;67856;47.754;19.088;2023-05-10T14:12:00;14.88;;;2.90;;
78563;SDS011;67856;47.754;19.088;2023-05-10T14:15:02;8.90;;;2.77;;
78563;SDS011;67856;47.754;19.088;2023-05-10T14:18:07;14.90;;;2.77;;
78563;SDS011;67856;47.754;19.088;2023-05-10T14:21:10;13.15;;;2.65;;
78563;SDS011;67856;47.754;19.088;2023-05-10T14:24:12;16.35;;;2.80;;
78563;SDS011;67856;47.754;19.088;2023-05-10T14:27:15;14.07;;;3.42;;
78563;SDS011;67856;47.754;19.088;2023-05-10T14:30:17;10.00;;;2.77;;
78563;SDS011;67856;47.754;19.088;2023-05-10T14:33:20;5.87;;;2.67;;
78563;SDS011;67856;47.754;19.088;2023-05-10T14:36:22;8.50;;;2.67;;
78563;SDS011;67856;47.754;19.088;2023-05-10T14:39:25;12.63;;;2.80;;
78563;SDS011;67856;47.754;19.088;2023-05-10T14:42:31;6.20;;;2.67;;
78563;SDS011;67856;47.754;19.088;2023-05-10T14:45:34;7.17;;;2.60;;
78563;SDS011;67856;47.754;19.088;2023-05-10T14:48:37;8.07;;;2.70;;
78563;SDS011;67856;47.754;19.088;2023-05-10T14:51:39;7.68;;;2.55;;
78563;SDS011;67856;47.754;19.088;2023-05-10T14:54:41;8.27;;;2.60;;
78563;SDS011;67856;47.754;19.088;2023-05-10T14:57:44;7.72;;;2.30;;
78563;SDS011;67856;47.754;19.088;2023-05-10T15:00:48;9.60;;;3.13;;
78563;SDS011;67856;47.754;19.088;2023-05-10T15:03:51;9.50;;;2.97;;
78563;SDS011;67856;47.754;19.088;2023-05-10T15:06:54;7.32;;;2.78;;
78563;SDS011;67856;47.754;19.088;2023-05-10T15:10:01;9.82;;;3.05;;
78563;SDS011;67856;47.754;19.088;2023-05-10T15:13:04;10.15;;;3.40;;
78563;SDS011;67856;47.754;19.088;2023-05-10T15:16:06;12.13;;;2.90;;
78563;SDS011;67856;47.754;19.088;2023-05-10T15:19:09;10.57;;;2.80;;
78563;SDS011;67856;47.754;19.088;2023-05-10T15:22:11;8.82;;;3.00;;
78563;SDS011;67856;47.754;19.088;2023-05-10T15:25:14;6.88;;;2.72;;
78563;SDS011;67856;47.754;19.088;2023-05-10T15:28:18;6.90;;;2.53;;
78563;SDS011;67856;47.754;19.088;2023-05-10T15:31:20;7.67;;;3.10;;
78563;SDS011;67856;47.754;19.088;2023-05-10T15:34:23;9.37;;;2.73;;
78563;SDS011;67856;47.754;19.088;2023-05-10T15:37:25;7.05;;;2.42;;
78563;SDS011;67856;47.754;19.088;2023-05-10T15:40:28;7.95;;;2.50;;
78563;SDS011;67856;47.754;19.088;2023-05-10T15:43:30;7.38;;;2.50;;
78563;SDS011;67856;47.754;19.088;2023-05-10T15:46:33;12.77;;;2.77;;
78563;SDS011;67856;47.754;19.088;2023-05-10T15:49:35;9.37;;;2.77;;
78563;SDS011;67856;47.754;19.088;2023-05-10T15:52:38;6.90;;;2.45;;
78563;SDS011;67856;47.754;19.088;2023-05-10T15:55:40;6.35;;;2.50;;
78563;SDS011;67856;47.754;19.088;2023-05-10T15:58:43;4.40;;;2.33;;
78563;SDS011;67856;47.754;19.088;2023-05-10T16:01:45;5.50;;;2.40;;
78563;SDS011;67856;47.754;19.088;2023-05-10T16:04:48;5.13;;;2.73;;
78563;SDS011;67856;47.754;19.088;2023-05-10T16:07:50;5.88;;;2.40;;
78563;SDS011;67856;47.754;19.088;2023-05-10T16:10:53;8.15;;;2.92;;
78563;SDS011;67856;47.754;19.088;2023-05-10T16:13:55;7.63;;;2.45;;
78563;SDS011;67856;47.754;19.088;2023-05-10T16:16:58;8.33;;;2.50;;
78563;SDS011;67856;47.754;19.088;2023-05-10T16:20:00;6.03;;;2.50;;
78563;SDS011;67856;47.754;19.088;2023-05-10T16:23:04;4.28;;;2.33;;
78563;SDS011;67856;47.754;19.088;2023-05-10T16:26:07;6.72;;;2.63;;
78563;SDS011;67856;47.754;19.088;2023-05-10T16:29:09;6.50;;;2.75;;
78563;SDS011;67856;47.754;19.088;2023-05-10T16:32:12;4.47;;;2.30;;
78563;SDS011;67856;47.754;19.088;2023-05-10T16:35:15;5.97;;;2.53;;
78563;SDS011;67856;47.754;19.088;2023-05-10T16:38:17;5.60;;;2.47;;
78563;SDS011;67856;47.754;19.088;2023-05-10T16:41:22;6.28;;;2.80;;
78563;SDS011;67856;47.754;19.088;2023-05-10T16:44:25;6.93;;;2.70;;
78563;SDS011;67856;47.754;19.088;2023-05-10T16:47:27;8.27;;;2.77;;
78563;SDS011;67856;47.754;19.088;2023-05-10T16:50:29;7.17;;;2.70;;
78563;SDS011;67856;47.754;19.088;2023-05-10T16:53:32;6.55;;;2.78;;
78563;SDS011;67856;47.754;19.088;2023-05-10T16:56:35;5.50;;;2.50;;
78563;SDS011;67856;47.754;19.088;2023-05-10T16:59:37;10.32;;;2.50;;
78563;SDS011;67856;47.754;19.088;2023-05-10T17:02:40;5.87;;;2.43;;
78563;SDS011;67856;47.754;19.088;2023-05-10T17:05:43;5.90;;;2.60;;
78563;SDS011;67856;47.754;19.088;2023-05-10T17:08:45;7.03;;;2.42;;
78563;SDS011;67856;47.754;19.088;2023-05-10T17:11:47;5.47;;;2.17;;
78563;SDS011;67856;47.754;19.088;2023-05-10T17:14:50;6.03;;;2.25;;
78563;SDS011;67856;47.754;19.088;2023-05-10T17:17:52;5.97;;;2.23;;
78563;SDS011;67856;47.754;19.088;2023-05-10T17:20:55;5.30;;;2.53;;
78563;SDS011;67856;47.754;19.088;2023-05-10T17:23:57;8.05;;;2.40;;
78563;SDS011;67856;47.754;19.088;2023-05-10T17:27:00;7.15;;;2.80;;
78563;SDS011;67856;47.754;19.088;2023-05-10T17:30:04;5.63;;;2.53;;
78563;SDS011;67856;47.754;19.088;2023-05-10T17:33:07;4.60;;;2.37;;
78563;SDS011;67856;47.754;19.088;2023-05-10T17:36:10;6.30;;;2.40;;
78563;SDS011;67856;47.754;19.088;2023-05-10T17:39:12;4.82;;;2.15;;
78563;SDS011;67856;47.754;19.088;2023-05-10T17:42:15;5.35;;;2.20;;
78563;SDS011;67856;47.754;19.088;2023-05-10T17:45:20;6.05;;;2.28;;
78563;SDS011;67856;47.754;19.088;2023-05-10T17:48:22;5.50;;;2.30;;
78563;SDS011;67856;47.754;19.088;2023-05-10T17:51:24;4.03;;;2.40;;
78563;SDS011;67856;47.754;19.088;2023-05-10T17:54:27;5.60;;;2.60;;
78563;SDS011;67856;47.754;19.088;2023-05-10T17:57:29;5.53;;;2.40;;
78563;SDS011;67856;47.754;19.088;2023-05-10T18:00:32;7.28;;;2.70;;
78563;SDS011;67856;47.754;19.088;2023-05-10T18:03:34;4.83;;;2.23;;
78563;SDS011;67856;47.754;19.088;2023-05-10T18:06:37;4.57;;;2.20;;
78563;SDS011;67856;47.754;19.088;2023-05-10T18:09:40;3.42;;;2.10;;
78563;SDS011;67856;47.754;19.088;2023-05-10T18:12:42;4.28;;;2.30;;
78563;SDS011;67856;47.754;19.088;2023-05-10T18:15:45;4.47;;;2.22;;
78563;SDS011;67856;47.754;19.088;2023-05-10T18:18:48;5.97;;;2.23;;
78563;SDS011;67856;47.754;19.088;2023-05-10T18:21:50;6.57;;;2.57;;
78563;SDS011;67856;47.754;19.088;2023-05-10T18:24:53;3.78;;;1.92;;
78563;SDS011;67856;47.754;19.088;2023-05-10T18:27:55;6.60;;;2.25;;
78563;SDS011;67856;47.754;19.088;2023-05-10T18:30:58;5.13;;;2.30;;
78563;SDS011;67856;47.754;19.088;2023-05-10T18:34:00;4.47;;;2.30;;